Main page
METAR-TAF:

METAR-TAF

Airports :

Yaoundé, Cameroon

Yaoundé Nsimalen International Airport

latitude: 03-50N, longitude: 011-31E, elevation: 751 m

Current weather observation

The report was made 1 hour and 5 minutes ago, at 11:00 UTC
Wind 1 kt from variable directions
Temperature 30°C
Humidity 62%
Pressure 1016 hPa
Visibility 10 km or more
Broken clouds at a height of 2000 ft

METAR: FKYS 261100Z VRB01KT 9999 BKN020 30/22 Q1016 NOSIG

Time: 13:05 (12:05 UTC)


TAF: missing

Weather observations and forecasts of more than 4000 airports (METAR and TAF reports).

The available stations are represented by yellow and red dots on the map.

Hover mouse over dot to see the name of the station.

Then click to see weather observations and forecasts.

To change the map : click on the green buttons with a black cross to zoom in, on the green button with a dash to zoom out, or on the green arrows for adjacent maps.


METAR-TAF: